createdAt,value
2023-01-21T00:00:07.948Z,1.73
2023-01-21T00:02:11.025Z,1.74
2023-01-21T00:04:14.408Z,1.74
2023-01-21T00:06:18.876Z,1.74
2023-01-21T00:08:22.034Z,1.75
2023-01-21T00:10:25.210Z,1.76
2023-01-21T00:12:28.371Z,1.76
2023-01-21T00:14:31.619Z,1.77
2023-01-21T00:16:34.601Z,1.78
2023-01-21T00:18:37.902Z,1.79
2023-01-21T00:20:41.066Z,1.77
2023-01-21T00:22:45.456Z,1.77
2023-01-21T00:24:48.501Z,1.74
2023-01-21T00:26:51.652Z,1.72
2023-01-21T00:28:54.778Z,1.68
2023-01-21T00:30:59.374Z,1.65
2023-01-21T00:33:02.512Z,1.60
2023-01-21T00:35:06.645Z,1.55
2023-01-21T00:37:09.706Z,1.51
2023-01-21T00:39:14.128Z,1.46
2023-01-21T00:41:17.368Z,1.41
2023-01-21T00:43:20.391Z,1.38
2023-01-21T00:45:23.453Z,1.35
2023-01-21T00:47:26.606Z,1.31
2023-01-21T00:49:29.728Z,1.28
2023-01-21T00:51:32.948Z,1.24
2023-01-21T00:53:38.278Z,1.18
2023-01-21T00:55:42.820Z,1.12
2023-01-21T00:57:46.095Z,1.07
2023-01-21T00:59:49.387Z,1.01
2023-01-21T01:01:52.607Z,0.96
2023-01-21T01:03:55.871Z,0.90
2023-01-21T01:06:03.347Z,0.86
2023-01-21T01:08:06.703Z,0.80
2023-01-21T01:10:11.071Z,0.75
2023-01-21T01:12:15.595Z,0.70
2023-01-21T01:14:18.894Z,0.65
2023-01-21T01:16:24.648Z,0.61
2023-01-21T01:18:28.623Z,0.56
2023-01-21T01:20:31.894Z,0.54
2023-01-21T01:22:35.085Z,0.51
2023-01-21T01:24:38.283Z,0.50
2023-01-21T01:26:42.350Z,0.49
2023-01-21T01:28:46.959Z,0.51
2023-01-21T01:30:50.269Z,0.53
2023-01-21T01:32:53.509Z,0.54
2023-01-21T01:34:56.654Z,0.54
2023-01-21T01:36:59.787Z,0.54
2023-01-21T01:39:02.988Z,0.52
2023-01-21T01:41:06.621Z,0.49
2023-01-21T01:43:18.379Z,0.47
2023-01-21T01:45:23.176Z,0.43
2023-01-21T01:47:31.113Z,0.42
2023-01-21T01:49:34.396Z,0.42
2023-01-21T01:51:48.645Z,0.44
2023-01-21T01:53:53.430Z,0.45
2023-01-21T01:55:56.800Z,0.49
2023-01-21T01:58:02.515Z,0.52
2023-01-21T02:00:09.007Z,0.56
2023-01-21T02:02:19.192Z,0.59
2023-01-21T02:04:28.324Z,0.63
2023-01-21T02:06:31.450Z,0.66
2023-01-21T02:08:36.320Z,0.68
2023-01-21T02:10:39.714Z,0.71
2023-01-21T02:12:44.829Z,0.73
2023-01-21T02:14:49.104Z,0.77
2023-01-21T02:17:03.732Z,0.80
2023-01-21T02:19:36.291Z,0.84
2023-01-21T02:21:55.247Z,0.89
2023-01-21T02:24:15.935Z,0.93
2023-01-21T02:26:45.483Z,0.94
2023-01-21T02:29:36.664Z,0.98
2023-01-21T02:32:08.109Z,0.99
2023-01-21T02:34:24.178Z,1.01
2023-01-21T02:36:37.715Z,1.03
2023-01-21T02:38:49.691Z,1.04
2023-01-21T02:41:03.243Z,1.06
2023-01-21T02:43:14.045Z,1.06
2023-01-21T02:45:25.500Z,1.08
2023-01-21T02:47:33.862Z,1.09
2023-01-21T02:49:43.100Z,1.09
2023-01-21T02:51:49.957Z,1.10
2023-01-21T02:53:53.131Z,1.11
2023-01-21T02:55:59.367Z,1.12
2023-01-21T02:58:05.288Z,1.14
2023-01-21T03:00:14.444Z,1.16
2023-01-21T03:02:26.366Z,1.19
2023-01-21T03:04:51.966Z,1.21
2023-01-21T03:07:04.539Z,1.23
2023-01-21T03:09:19.321Z,1.24
2023-01-21T03:11:23.423Z,1.25
2023-01-21T03:13:49.939Z,1.26
2023-01-21T03:16:14.516Z,1.26
2023-01-21T03:18:25.144Z,1.27
2023-01-21T03:20:34.720Z,1.27
2023-01-21T03:22:40.185Z,1.30
2023-01-21T03:24:46.657Z,1.31
2023-01-21T03:26:53.726Z,1.34
2023-01-21T03:29:01.838Z,1.37
2023-01-21T03:31:08.020Z,1.38
2023-01-21T03:33:14.018Z,1.40
2023-01-21T03:35:24.931Z,1.39
2023-01-21T03:37:35.028Z,1.36
2023-01-21T03:39:46.799Z,1.36
2023-01-21T03:41:50.128Z,1.35
2023-01-21T03:43:53.434Z,1.34
2023-01-21T03:46:04.192Z,1.35
2023-01-21T03:48:17.552Z,1.35
2023-01-21T03:50:23.706Z,1.38
2023-01-21T03:52:28.285Z,1.39
2023-01-21T03:54:33.447Z,1.40
2023-01-21T03:56:36.595Z,1.39
2023-01-21T03:58:39.753Z,1.39
2023-01-21T04:00:42.986Z,1.35
2023-01-21T04:02:46.138Z,1.34
2023-01-21T04:04:49.314Z,1.31
2023-01-21T04:06:52.441Z,1.30
2023-01-21T04:08:55.552Z,1.27
2023-01-21T04:11:00.114Z,1.27
2023-01-21T04:13:03.358Z,1.27
2023-01-21T04:15:07.688Z,1.27
2023-01-21T04:17:11.319Z,1.26
2023-01-21T04:19:14.456Z,1.25
2023-01-21T04:21:17.618Z,1.25
2023-01-21T04:23:20.758Z,1.25
2023-01-21T04:25:23.886Z,1.24
2023-01-21T04:27:28.453Z,1.23
2023-01-21T04:29:31.566Z,1.21
2023-01-21T04:31:34.781Z,1.22
2023-01-21T04:33:38.033Z,1.22
2023-01-21T04:35:41.192Z,1.22
2023-01-21T04:37:44.506Z,1.20
2023-01-21T04:39:47.678Z,1.17
2023-01-21T04:41:50.876Z,1.15
2023-01-21T04:43:55.446Z,1.15
2023-01-21T04:45:58.638Z,1.12
2023-01-21T04:48:01.753Z,1.11
2023-01-21T04:50:05.310Z,1.11
2023-01-21T04:52:09.291Z,1.11
2023-01-21T04:54:12.564Z,1.10
2023-01-21T04:56:15.761Z,1.08
2023-01-21T04:58:18.923Z,1.06
2023-01-21T05:00:24.060Z,1.07
2023-01-21T05:02:27.259Z,1.09
2023-01-21T05:04:30.528Z,1.10
2023-01-21T05:06:33.629Z,1.11
2023-01-21T05:08:36.801Z,1.12
2023-01-21T05:10:40.009Z,1.12
2023-01-21T05:12:43.205Z,1.11
2023-01-21T05:14:46.560Z,1.12
2023-01-21T05:16:51.219Z,1.12
2023-01-21T05:18:54.442Z,1.10
2023-01-21T05:20:57.625Z,1.10
2023-01-21T05:23:00.830Z,1.08
2023-01-21T05:25:04.056Z,1.08
2023-01-21T05:27:07.251Z,1.08
2023-01-21T05:29:10.685Z,1.09
2023-01-21T05:31:13.946Z,1.11
2023-01-21T05:33:18.648Z,1.10
2023-01-21T05:35:22.752Z,1.10
2023-01-21T05:37:26.036Z,1.10
2023-01-21T05:39:29.206Z,1.11
2023-01-21T05:41:32.539Z,1.13
2023-01-21T05:43:35.837Z,1.14
2023-01-21T05:45:39.081Z,1.14
2023-01-21T05:47:42.483Z,1.13
2023-01-21T05:49:47.483Z,1.10
2023-01-21T05:51:50.671Z,1.07
2023-01-21T05:53:53.858Z,1.07
2023-01-21T05:55:57.961Z,1.06
2023-01-21T05:58:01.158Z,1.05
2023-01-21T06:00:05.359Z,1.03
2023-01-21T06:02:08.993Z,1.00
2023-01-21T06:04:12.188Z,0.98
2023-01-21T06:06:16.984Z,0.95
2023-01-21T06:08:20.489Z,0.95
2023-01-21T06:10:23.667Z,0.94
2023-01-21T06:12:26.895Z,0.93
2023-01-21T06:14:30.071Z,0.92
2023-01-21T06:16:33.487Z,0.95
2023-01-21T06:18:36.933Z,0.96
2023-01-21T06:20:40.139Z,0.97
2023-01-21T06:22:44.732Z,0.97
2023-01-21T06:24:48.039Z,0.97
2023-01-21T06:26:51.284Z,0.98
2023-01-21T06:28:56.388Z,0.97
2023-01-21T06:30:59.834Z,0.97
2023-01-21T06:33:03.228Z,0.95
2023-01-21T06:35:07.036Z,0.93
2023-01-21T06:37:10.271Z,0.92
2023-01-21T06:39:14.851Z,0.92
2023-01-21T06:41:18.119Z,0.90
2023-01-21T06:43:21.290Z,0.90
2023-01-21T06:45:24.464Z,0.88
2023-01-21T06:47:27.726Z,0.86
2023-01-21T06:49:31.307Z,0.84
2023-01-21T06:51:34.575Z,0.84
2023-01-21T06:53:37.762Z,0.82
2023-01-21T06:55:42.337Z,0.81
2023-01-21T06:57:46.426Z,0.82
2023-01-21T06:59:49.705Z,0.83
2023-01-21T07:01:53.586Z,0.83
2023-01-21T07:03:56.828Z,0.82
2023-01-21T07:05:59.977Z,0.83
2023-01-21T07:08:03.242Z,0.81
2023-01-21T07:10:09.150Z,0.81
2023-01-21T07:12:13.809Z,0.80
2023-01-21T07:14:17.023Z,0.81
2023-01-21T07:16:20.216Z,0.80
2023-01-21T07:18:23.398Z,0.78
2023-01-21T07:20:26.601Z,0.77
2023-01-21T07:22:29.801Z,0.77
2023-01-21T07:24:32.983Z,0.78
2023-01-21T07:26:38.158Z,0.81
2023-01-21T07:28:42.819Z,0.82
2023-01-21T07:30:46.158Z,0.82
2023-01-21T07:32:49.464Z,0.81
2023-01-21T07:34:52.705Z,0.82
2023-01-21T07:36:55.983Z,0.84
2023-01-21T07:38:59.269Z,0.87
2023-01-21T07:41:02.509Z,0.89
2023-01-21T07:43:05.748Z,0.90
2023-01-21T07:45:11.380Z,0.89
2023-01-21T07:47:14.583Z,0.90
2023-01-21T07:49:18.458Z,0.89
2023-01-21T07:51:22.367Z,0.89
2023-01-21T07:53:25.925Z,0.89
2023-01-21T07:55:30.147Z,0.88
2023-01-21T07:57:33.350Z,0.86
2023-01-21T07:59:36.587Z,0.84
2023-01-21T08:01:41.328Z,0.83
2023-01-21T08:03:44.667Z,0.82
2023-01-21T08:05:47.891Z,0.84
2023-01-21T08:07:51.383Z,0.88
2023-01-21T08:09:54.629Z,0.90
2023-01-21T08:11:57.814Z,0.93
2023-01-21T08:14:01.574Z,0.96
2023-01-21T08:16:06.259Z,0.98
2023-01-21T08:18:11.017Z,1.01
2023-01-21T08:20:15.373Z,1.04
2023-01-21T08:22:18.623Z,1.07
2023-01-21T08:24:21.805Z,1.08
2023-01-21T08:26:25.798Z,1.09
2023-01-21T08:28:29.173Z,1.10
2023-01-21T08:30:32.370Z,1.11
2023-01-21T08:32:35.632Z,1.12
2023-01-21T08:34:40.235Z,1.13
2023-01-21T08:36:43.492Z,1.11
2023-01-21T08:38:48.662Z,1.10
2023-01-21T08:40:52.091Z,1.06
2023-01-21T08:42:59.427Z,1.03
2023-01-21T08:45:02.824Z,0.99
2023-01-21T08:47:06.079Z,0.95
2023-01-21T08:49:09.376Z,0.94
2023-01-21T08:51:14.125Z,0.93
2023-01-21T08:53:17.796Z,0.91
2023-01-21T08:55:21.452Z,0.93
2023-01-21T08:57:24.726Z,0.96
2023-01-21T08:59:30.190Z,0.97
2023-01-21T09:01:33.680Z,0.98
2023-01-21T09:03:39.068Z,1.00
2023-01-21T09:05:42.460Z,1.02
2023-01-21T09:07:47.576Z,1.02
2023-01-21T09:09:50.868Z,1.02
2023-01-21T09:11:54.150Z,1.04
2023-01-21T09:14:00.633Z,1.07
2023-01-21T09:16:04.945Z,1.07
2023-01-21T09:18:08.879Z,1.10
2023-01-21T09:20:13.303Z,1.11
2023-01-21T09:22:17.297Z,1.13
2023-01-21T09:24:21.914Z,1.15
2023-01-21T09:26:25.913Z,1.18
2023-01-21T09:28:29.459Z,1.23
2023-01-21T09:30:32.707Z,1.24
2023-01-21T09:32:35.944Z,1.27
2023-01-21T09:34:39.185Z,1.27
2023-01-21T09:36:42.419Z,1.30
2023-01-21T09:38:46.744Z,1.32
2023-01-21T09:40:51.697Z,1.32
2023-01-21T09:42:54.907Z,1.33
2023-01-21T09:45:01.124Z,1.33
2023-01-21T09:47:10.660Z,1.35
2023-01-21T09:49:19.722Z,1.35
2023-01-21T09:51:30.137Z,1.34
2023-01-21T09:53:39.315Z,1.33
2023-01-21T09:55:48.178Z,1.33
2023-01-21T09:58:09.240Z,1.35
2023-01-21T10:00:32.406Z,1.38
2023-01-21T10:02:43.635Z,1.40
2023-01-21T10:04:53.973Z,1.41
2023-01-21T10:07:04.475Z,1.42
2023-01-21T10:09:36.914Z,1.46
2023-01-21T10:11:51.496Z,1.50
2023-01-21T10:14:12.857Z,1.52
2023-01-21T10:16:23.074Z,1.55
2023-01-21T10:18:30.968Z,1.60
2023-01-21T10:20:45.653Z,1.62
2023-01-21T10:22:54.191Z,1.68
2023-01-21T10:25:01.795Z,1.72
2023-01-21T10:27:05.456Z,1.76
2023-01-21T10:29:17.377Z,1.78
2023-01-21T10:31:24.546Z,1.79
2023-01-21T10:33:32.186Z,1.80
2023-01-21T10:35:52.784Z,1.84
2023-01-21T10:38:01.928Z,1.90
2023-01-21T10:40:12.130Z,1.96
2023-01-21T10:42:42.431Z,1.99
2023-01-21T10:44:56.206Z,2.04
2023-01-21T10:47:08.232Z,2.09
2023-01-21T10:49:27.974Z,2.12
2023-01-21T10:51:36.195Z,2.15
2023-01-21T10:53:45.391Z,2.20
2023-01-21T10:56:01.819Z,2.25
2023-01-21T10:58:11.515Z,2.33
2023-01-21T11:00:21.836Z,2.36
2023-01-21T11:02:31.006Z,2.36
2023-01-21T11:04:36.913Z,2.37
2023-01-21T11:06:41.125Z,2.41
2023-01-21T11:08:47.843Z,2.42
2023-01-21T11:10:55.331Z,2.43
2023-01-21T11:12:58.992Z,2.43
2023-01-21T11:15:08.813Z,2.44
2023-01-21T11:17:13.560Z,2.48
2023-01-21T11:19:18.987Z,2.52
2023-01-21T11:21:24.426Z,2.56
2023-01-21T11:23:29.879Z,2.62
2023-01-21T11:25:38.200Z,2.66
2023-01-21T11:27:41.455Z,2.69
2023-01-21T11:29:44.671Z,2.75
2023-01-21T11:31:50.242Z,2.80
2023-01-21T11:33:57.121Z,2.83
2023-01-21T11:36:15.641Z,2.89
2023-01-21T11:38:33.390Z,2.98
2023-01-21T11:40:36.668Z,3.00
2023-01-21T11:42:48.617Z,3.02
2023-01-21T11:44:54.980Z,3.04
2023-01-21T11:46:58.297Z,3.05
2023-01-21T11:49:21.852Z,3.08
2023-01-21T11:51:25.194Z,3.09
2023-01-21T11:53:28.393Z,3.10
2023-01-21T11:55:32.590Z,3.10
2023-01-21T11:57:35.957Z,3.14
2023-01-21T11:59:42.071Z,3.18
2023-01-21T12:01:53.235Z,3.21
2023-01-21T12:04:00.949Z,3.21
2023-01-21T12:06:08.710Z,3.22
2023-01-21T12:08:21.983Z,3.23
2023-01-21T12:10:29.592Z,3.24
2023-01-21T12:12:47.615Z,3.29
2023-01-21T12:14:55.108Z,3.33
2023-01-21T12:17:09.208Z,3.36
2023-01-21T12:19:35.964Z,3.32
2023-01-21T12:21:50.889Z,3.29
2023-01-21T12:24:05.252Z,3.27
2023-01-21T12:26:32.217Z,3.26
2023-01-21T12:31:23.876Z,3.18
2023-01-21T12:33:44.185Z,3.13
2023-01-21T12:35:51.830Z,3.06
2023-01-21T12:38:01.685Z,3.01
2023-01-21T12:40:17.184Z,2.98
2023-01-21T12:42:26.273Z,2.98
2023-01-21T12:44:35.149Z,2.99
2023-01-21T12:46:44.583Z,3.02
2023-01-21T12:48:53.450Z,3.05
2023-01-21T12:51:01.214Z,3.08
2023-01-21T12:53:16.246Z,3.13
2023-01-21T12:55:24.445Z,3.15
2023-01-21T12:57:32.764Z,3.17
2023-01-21T12:59:43.313Z,3.18
2023-01-21T13:01:55.270Z,3.19
2023-01-21T13:04:05.117Z,3.21
2023-01-21T13:06:13.686Z,3.25
2023-01-21T13:08:38.532Z,3.28
2023-01-21T13:10:48.605Z,3.33
2023-01-21T13:12:57.673Z,3.37
2023-01-21T13:15:04.033Z,3.38
2023-01-21T13:17:15.690Z,3.40
2023-01-21T13:19:19.245Z,3.40
2023-01-21T13:21:33.263Z,3.42
2023-01-21T13:23:46.805Z,3.46
2023-01-21T13:25:58.231Z,3.51
2023-01-21T13:28:08.028Z,3.68
2023-01-21T13:30:25.012Z,4.00
2023-01-21T13:32:38.534Z,4.30
2023-01-21T13:34:53.203Z,4.56
2023-01-21T13:37:10.603Z,4.74
2023-01-21T13:39:23.011Z,4.82
2023-01-21T13:41:37.141Z,4.83
2023-01-21T13:43:59.696Z,4.83
2023-01-21T13:46:14.433Z,4.77
2023-01-21T13:48:39.148Z,4.61
2023-01-21T13:50:55.351Z,4.39
2023-01-21T13:53:20.652Z,4.21
2023-01-21T13:55:39.138Z,4.00
2023-01-21T13:58:02.862Z,3.85
2023-01-21T14:00:12.942Z,3.71
2023-01-21T14:02:21.054Z,3.61
2023-01-21T14:04:31.277Z,3.55
2023-01-21T14:06:41.915Z,3.50
2023-01-21T14:08:51.417Z,3.46
2023-01-21T14:10:59.676Z,3.43
2023-01-21T14:13:39.844Z,3.38
2023-01-21T14:15:57.851Z,3.34
2023-01-21T14:18:22.325Z,3.30
2023-01-21T14:20:52.589Z,3.25
2023-01-21T14:23:18.453Z,3.21
2023-01-21T14:25:34.355Z,3.16
2023-01-21T14:27:48.030Z,3.12
2023-01-21T14:29:56.950Z,3.08
2023-01-21T14:32:06.994Z,3.04
2023-01-21T14:34:18.536Z,3.02
2023-01-21T14:36:24.576Z,3.01
2023-01-21T14:38:38.173Z,2.99
2023-01-21T14:40:49.207Z,2.98
2023-01-21T14:42:56.473Z,2.98
2023-01-21T14:45:08.083Z,2.98
2023-01-21T14:47:24.046Z,2.98
2023-01-21T14:49:41.022Z,2.97
2023-01-21T14:51:48.129Z,2.93
2023-01-21T14:53:53.545Z,2.92
2023-01-21T14:56:16.761Z,2.86
2023-01-21T14:58:24.745Z,2.80
2023-01-21T15:00:32.200Z,2.76
2023-01-21T15:02:41.312Z,2.72
2023-01-21T15:04:53.957Z,2.66
2023-01-21T15:07:00.059Z,2.60
2023-01-21T15:09:04.774Z,2.56
2023-01-21T15:11:08.554Z,2.49
2023-01-21T15:13:30.647Z,2.42
2023-01-21T15:15:36.984Z,2.37
2023-01-21T15:18:03.594Z,2.30
2023-01-21T15:20:40.001Z,2.26
2023-01-21T15:22:46.809Z,2.21
2023-01-21T15:25:04.732Z,2.14
2023-01-21T15:27:19.715Z,2.08
2023-01-21T15:29:34.828Z,2.04
2023-01-21T15:31:44.168Z,2.00
2023-01-21T15:33:50.444Z,1.97
2023-01-21T15:35:55.417Z,1.93
2023-01-21T15:38:03.329Z,1.91
2023-01-21T15:40:18.142Z,1.87
2023-01-21T15:42:28.353Z,1.85
2023-01-21T15:44:55.991Z,1.80
2023-01-21T15:47:04.420Z,1.76
2023-01-21T15:49:30.716Z,1.73
2023-01-21T15:51:46.329Z,1.68
2023-01-21T15:54:05.818Z,1.65
2023-01-21T15:56:36.807Z,1.61
2023-01-21T15:58:52.341Z,1.58
2023-01-21T16:01:05.845Z,1.55
2023-01-21T16:03:21.392Z,1.52
2023-01-21T16:05:32.919Z,1.50
2023-01-21T16:07:41.822Z,1.49
2023-01-21T16:09:58.870Z,1.46
2023-01-21T16:12:16.263Z,1.43
2023-01-21T16:14:37.742Z,1.41
2023-01-21T16:16:53.785Z,1.39
2023-01-21T16:19:03.261Z,1.33
2023-01-21T16:21:07.799Z,1.31
2023-01-21T16:23:11.298Z,1.26
2023-01-21T16:25:18.409Z,1.20
2023-01-21T16:27:24.789Z,1.14
2023-01-21T16:29:28.481Z,1.11
2023-01-21T16:31:31.922Z,1.08
2023-01-21T16:33:36.708Z,1.06
2023-01-21T16:35:47.260Z,1.04
2023-01-21T16:37:55.129Z,1.00
2023-01-21T16:40:26.765Z,1.01
2023-01-21T16:42:44.262Z,1.04
2023-01-21T16:44:47.646Z,1.07
2023-01-21T16:46:51.569Z,1.09
2023-01-21T16:48:58.922Z,1.12
2023-01-21T16:51:02.845Z,1.15
2023-01-21T16:53:09.689Z,1.17
2023-01-21T16:55:20.866Z,1.20
2023-01-21T16:57:31.768Z,1.23
2023-01-21T16:59:39.926Z,1.26
2023-01-21T17:01:43.457Z,1.27
2023-01-21T17:03:48.326Z,1.28
2023-01-21T17:05:56.214Z,1.30
2023-01-21T17:08:02.239Z,1.29
2023-01-21T17:10:09.619Z,1.28
2023-01-21T17:12:29.052Z,1.24
2023-01-21T17:14:34.330Z,1.23
2023-01-21T17:16:40.670Z,1.20
2023-01-21T17:18:52.188Z,1.18
2023-01-21T17:21:03.667Z,1.17
2023-01-21T17:23:10.818Z,1.14
2023-01-21T17:25:23.634Z,1.14
2023-01-21T17:27:28.267Z,1.14
2023-01-21T17:29:33.524Z,1.14
2023-01-21T17:31:39.452Z,1.13
2023-01-21T17:33:43.857Z,1.15
2023-01-21T17:36:07.443Z,1.15
2023-01-21T17:38:30.126Z,1.17
2023-01-21T17:40:36.205Z,1.17
2023-01-21T17:42:41.651Z,1.17
2023-01-21T17:44:47.772Z,1.17
2023-01-21T17:46:54.550Z,1.16
2023-01-21T17:49:03.241Z,1.15
2023-01-21T17:51:12.948Z,1.15
2023-01-21T17:53:22.912Z,1.14
2023-01-21T17:55:29.864Z,1.15
2023-01-21T17:57:34.901Z,1.16
2023-01-21T17:59:39.527Z,1.18
2023-01-21T18:01:43.119Z,1.19
2023-01-21T18:03:46.851Z,1.20
2023-01-21T18:05:50.224Z,1.18
2023-01-21T18:07:54.781Z,1.17
2023-01-21T18:10:03.185Z,1.14
2023-01-21T18:12:07.739Z,1.11
2023-01-21T18:14:14.902Z,1.08
2023-01-21T18:16:18.181Z,1.05
2023-01-21T18:18:25.354Z,1.02
2023-01-21T18:20:30.393Z,1.01
2023-01-21T18:22:33.649Z,1.00
2023-01-21T18:24:38.293Z,1.01
2023-01-21T18:26:41.559Z,1.01
2023-01-21T18:28:44.752Z,1.00
2023-01-21T18:30:48.258Z,1.00
2023-01-21T18:32:51.976Z,1.01
2023-01-21T18:34:55.208Z,0.99
2023-01-21T18:36:58.492Z,0.99
2023-01-21T18:39:01.714Z,0.99
2023-01-21T18:41:08.911Z,0.98
2023-01-21T18:43:12.142Z,1.00
2023-01-21T18:45:17.773Z,1.00
2023-01-21T18:47:22.672Z,1.03
2023-01-21T18:49:27.724Z,1.05
2023-01-21T18:51:32.321Z,1.06
2023-01-21T18:53:35.782Z,1.06
2023-01-21T18:55:39.295Z,1.05
2023-01-21T18:57:46.285Z,1.05
2023-01-21T18:59:49.817Z,1.05
2023-01-21T19:01:53.016Z,1.04
2023-01-21T19:03:56.252Z,1.06
2023-01-21T19:06:00.052Z,1.07
2023-01-21T19:08:05.443Z,1.08
2023-01-21T19:10:13.161Z,1.07
2023-01-21T19:12:18.567Z,1.08
2023-01-21T19:14:23.174Z,1.07
2023-01-21T19:16:26.486Z,1.05
2023-01-21T19:18:29.728Z,1.02
2023-01-21T19:20:32.970Z,1.00
2023-01-21T19:22:36.592Z,1.00
2023-01-21T19:24:39.797Z,0.98
2023-01-21T19:26:43.232Z,0.98
2023-01-21T19:28:46.589Z,0.96
2023-01-21T19:30:55.447Z,0.95
2023-01-21T19:33:00.762Z,0.95
2023-01-21T19:35:04.009Z,0.93
2023-01-21T19:37:07.696Z,0.91
2023-01-21T19:39:16.829Z,0.92
2023-01-21T19:41:20.135Z,0.92
2023-01-21T19:43:23.638Z,0.93
2023-01-21T19:45:29.967Z,0.92
2023-01-21T19:47:34.601Z,0.92
2023-01-21T19:49:37.770Z,0.91
2023-01-21T19:51:41.014Z,0.90
2023-01-21T19:53:44.211Z,0.88
2023-01-21T19:55:49.207Z,0.84
2023-01-21T19:57:57.521Z,0.80
2023-01-21T20:00:01.056Z,0.77
2023-01-21T20:02:04.298Z,0.75
2023-01-21T20:04:10.129Z,0.73
2023-01-21T20:06:13.617Z,0.69
2023-01-21T20:08:21.642Z,0.65
2023-01-21T20:10:28.224Z,0.62
2023-01-21T20:12:32.035Z,0.58
2023-01-21T20:14:35.214Z,0.56
2023-01-21T20:16:45.893Z,0.53
2023-01-21T20:18:49.858Z,0.50
2023-01-21T20:20:54.722Z,0.48
2023-01-21T20:22:58.312Z,0.47
2023-01-21T20:25:01.510Z,0.45
2023-01-21T20:27:08.578Z,0.42
2023-01-21T20:29:16.625Z,0.40
2023-01-21T20:31:20.128Z,0.39
2023-01-21T20:33:26.487Z,0.38
2023-01-21T20:35:29.925Z,0.37
2023-01-21T20:37:35.580Z,0.38
2023-01-21T20:39:38.799Z,0.38
2023-01-21T20:41:43.414Z,0.38
2023-01-21T20:43:46.768Z,0.40
2023-01-21T20:45:52.128Z,0.41
2023-01-21T20:47:57.841Z,0.43
2023-01-21T20:50:01.892Z,0.44
2023-01-21T20:52:05.453Z,0.47
2023-01-21T20:54:10.145Z,0.49
2023-01-21T20:56:19.405Z,0.52
2023-01-21T20:58:23.084Z,0.55
2023-01-21T21:00:28.831Z,0.56
2023-01-21T21:02:32.129Z,0.58
2023-01-21T21:04:35.347Z,0.59
2023-01-21T21:06:38.626Z,0.60
2023-01-21T21:08:42.357Z,0.61
2023-01-21T21:10:47.874Z,0.64
2023-01-21T21:12:51.623Z,0.66
2023-01-21T21:14:54.828Z,0.67
2023-01-21T21:16:58.892Z,0.69
2023-01-21T21:19:03.703Z,0.70
2023-01-21T21:21:07.380Z,0.71
2023-01-21T21:23:13.040Z,0.72
2023-01-21T21:25:17.962Z,0.73
2023-01-21T21:27:22.741Z,0.75
2023-01-21T21:29:26.083Z,0.75
2023-01-21T21:31:32.398Z,0.76
2023-01-21T21:33:35.731Z,0.78
2023-01-21T21:35:39.799Z,0.78
2023-01-21T21:37:43.631Z,0.79
2023-01-21T21:39:46.890Z,0.80
2023-01-21T21:42:07.285Z,0.81
2023-01-21T21:44:12.310Z,0.83
2023-01-21T21:46:33.359Z,0.82
2023-01-21T21:48:39.584Z,0.81
2023-01-21T21:50:43.200Z,0.81
2023-01-21T21:52:46.356Z,0.81
2023-01-21T21:54:49.690Z,0.81
2023-01-21T21:56:53.026Z,0.80
2023-01-21T21:58:56.126Z,0.80
2023-01-21T22:01:09.977Z,0.80
2023-01-21T22:03:14.107Z,0.80
2023-01-21T22:05:17.721Z,0.80
2023-01-21T22:07:21.131Z,0.81
2023-01-21T22:09:24.356Z,0.82
2023-01-21T22:11:28.955Z,0.84
2023-01-21T22:13:33.272Z,0.83
2023-01-21T22:15:36.808Z,0.84
2023-01-21T22:17:41.438Z,0.84
2023-01-21T22:19:44.728Z,0.86
2023-01-21T22:21:48.172Z,0.87
2023-01-21T22:23:51.488Z,0.88
2023-01-21T22:25:56.218Z,0.89
2023-01-21T22:27:59.582Z,0.91
2023-01-21T22:30:02.818Z,0.90
2023-01-21T22:32:06.526Z,0.92
2023-01-21T22:34:12.707Z,0.93
2023-01-21T22:36:18.682Z,0.94
2023-01-21T22:38:21.938Z,0.94
2023-01-21T22:40:25.458Z,0.94
2023-01-21T22:42:28.913Z,0.95
2023-01-21T22:44:32.103Z,0.95
2023-01-21T22:46:35.405Z,0.95
2023-01-21T22:48:38.595Z,0.95
2023-01-21T22:50:44.445Z,0.95
2023-01-21T22:52:48.164Z,0.95
2023-01-21T22:54:51.359Z,0.93
2023-01-21T22:56:54.650Z,0.93
2023-01-21T22:58:58.294Z,0.93
2023-01-21T23:01:02.534Z,0.93
2023-01-21T23:03:07.153Z,0.93
2023-01-21T23:05:10.673Z,0.92
2023-01-21T23:07:15.422Z,0.93
2023-01-21T23:09:18.628Z,0.94
2023-01-21T23:11:21.916Z,0.92
2023-01-21T23:13:26.434Z,0.93
2023-01-21T23:15:29.746Z,0.93
2023-01-21T23:17:32.935Z,0.91
2023-01-21T23:19:36.133Z,0.92
2023-01-21T23:21:39.856Z,0.92
2023-01-21T23:23:44.716Z,0.93
2023-01-21T23:25:48.835Z,0.94
2023-01-21T23:27:52.172Z,0.94
2023-01-21T23:29:55.331Z,0.92
2023-01-21T23:31:59.025Z,0.92
2023-01-21T23:34:03.317Z,0.91
2023-01-21T23:36:09.430Z,0.91
2023-01-21T23:38:12.596Z,0.91
2023-01-21T23:40:17.659Z,0.91
2023-01-21T23:42:22.449Z,0.90
2023-01-21T23:44:26.285Z,0.88
2023-01-21T23:46:29.838Z,0.87
2023-01-21T23:48:33.114Z,0.86
2023-01-21T23:50:36.435Z,0.86
2023-01-21T23:52:40.460Z,0.86
2023-01-21T23:54:45.065Z,0.85
2023-01-21T23:56:49.957Z,0.84
2023-01-21T23:58:53.465Z,0.83
